Time;durP1;ratioP1;P1;durP2;ratioP2;P2;SDS_P1;SDS_P2;PMS_P1;PMS_P2;Temp;Humidity;BMP_temperature;BMP_pressure;BME280_temperature;BME280_humidity;BME280_pressure;Samples;Min_cycle;Max_cycle;Signal;HPM_P1;HPM_P2
2021/03/21 00:04:45;;;;;;;14.53;5.57;;;;;;;0.37;68.46;100748.20;4781279;59;1136510;-78
2021/03/21 00:09:50;;;;;;;12.63;4.23;;;;;;;0.38;68.43;100737.34;4935221;59;1136832;-77
2021/03/21 00:14:56;;;;;;;13.63;3.93;;;;;;;0.36;68.31;100728.29;4934967;59;1137160;-78
2021/03/21 00:20:03;;;;;;;18.75;6.72;;;;;;;0.35;68.13;100720.08;4934661;58;1137034;-77
2021/03/21 00:25:14;;;;;;;6.83;2.80;;;;;;;0.38;68.26;100716.53;5014738;57;1137027;-77
2021/03/21 00:30:24;;;;;;;7.37;3.37;;;;;;;0.38;68.29;100701.78;5014801;57;1134652;-78
2021/03/21 00:35:30;;;;;;;8.63;3.23;;;;;;;0.39;68.38;100690.47;5007865;57;1134670;-78
2021/03/21 00:40:37;;;;;;;9.00;3.47;;;;;;;0.37;68.31;100671.45;5014391;57;1134741;-78
2021/03/21 00:45:43;;;;;;;8.20;3.33;;;;;;;0.37;68.56;100656.30;5014531;57;1134737;-77
2021/03/21 00:50:49;;;;;;;4.67;2.50;;;;;;;0.36;68.66;100663.25;5014703;57;1134794;-78
2021/03/21 00:55:55;;;;;;;12.13;4.10;;;;;;;0.34;68.71;100634.69;5014525;57;1134754;-77
2021/03/21 01:01:02;;;;;;;11.40;2.93;;;;;;;0.34;68.79;100641.19;5014544;57;1136909;-77
2021/03/21 01:06:09;;;;;;;5.65;2.40;;;;;;;0.36;68.75;100630.73;5028813;57;1136852;-77
2021/03/21 01:11:19;;;;;;;6.90;2.47;;;;;;;0.39;68.90;100620.68;5013754;57;1134916;-78
2021/03/21 01:16:35;;;;;;;4.65;1.92;;;;;;;0.31;69.15;100592.31;5014255;57;1134785;-78
2021/03/21 01:21:44;;;;;;;4.08;2.40;;;;;;;0.31;69.15;100592.31;5013051;57;1134602;-78
2021/03/21 01:26:49;;;;;;;10.47;2.80;;;;;;;0.32;69.44;100582.30;4999997;58;1135105;-77
2021/03/21 01:31:55;;;;;;;2.70;1.27;;;;;;;0.32;69.54;100569.30;5003454;58;1136912;-76
2021/03/21 01:37:00;;;;;;;5.70;2.70;;;;;;;0.29;69.82;100554.67;5004021;58;1134861;-77
2021/03/21 01:42:14;;;;;;;8.57;3.13;;;;;;;0.29;69.74;100533.87;5004146;58;1134772;-77
2021/03/21 01:47:33;;;;;;;;;;;;;;;0.28;70.06;100526.97;5007887;58;1134955;-77
2021/03/21 01:52:42;;;;;;;5.10;1.27;;;;;;;0.24;70.59;100515.41;5017364;58;971594;-77
2021/03/21 01:57:48;;;;;;;5.33;2.87;;;;;;;0.19;71.17;100516.86;5004319;58;1132105;-76
2021/03/21 02:02:53;;;;;;;4.60;1.57;;;;;;;0.15;71.89;100500.14;5004102;58;1134218;-76
2021/03/21 02:08:33;;;;;;;1.73;1.60;;;;;;;0.14;72.31;100492.80;5003802;58;1134201;-77
2021/03/21 02:13:55;;;;;;;5.00;3.27;;;;;;;0.13;73.02;100468.99;5003965;58;1134336;-77
2021/03/21 02:19:20;;;;;;;5.60;2.30;;;;;;;0.12;73.34;100458.64;5004247;58;1134212;-77
2021/03/21 02:25:02;;;;;;;41.08;9.25;;;;;;;0.08;74.20;100457.89;5002454;57;1134580;-76
2021/03/21 02:30:17;;;;;;;11.70;3.87;;;;;;;0.06;74.29;100453.20;5003805;58;1136396;-76
2021/03/21 02:35:36;;;;;;;16.05;5.50;;;;;;;0.04;75.14;100441.15;5004094;58;1136252;-77
2021/03/21 02:41:01;;;;;;;22.30;7.45;;;;;;;0.02;75.39;100430.80;5003527;58;1136913;-78
2021/03/21 02:46:22;;;;;;;26.83;8.73;;;;;;;0.05;75.29;100417.70;5003855;58;1136350;-75
2021/03/21 02:51:37;;;;;;;11.37;4.33;;;;;;;0.02;76.24;100413.91;5003891;58;1136918;-76
2021/03/21 02:56:47;;;;;;;9.13;3.87;;;;;;;-0.03;77.74;100401.09;5003790;58;1136500;-76
2021/03/21 03:02:06;;;;;;;6.13;3.33;;;;;;;-0.07;77.70;100384.35;5003986;58;1136475;-75
2021/03/21 03:07:31;;;;;;;5.45;2.95;;;;;;;-0.09;78.28;100366.20;5004114;58;1136517;-75
2021/03/21 03:12:41;;;;;;;6.37;2.80;;;;;;;-0.12;78.58;100352.02;4991511;58;1136645;-77
2021/03/21 03:18:30;;;;;;;6.53;3.53;;;;;;;-0.09;78.57;100356.26;5002234;58;1136535;-77
2021/03/21 03:23:49;;;;;;;6.53;3.87;;;;;;;-0.08;78.22;100343.66;4700742;62;1136721;-77
2021/03/21 03:29:19;;;;;;;11.77;3.13;;;;;;;-0.07;78.17;100329.77;4700689;61;1136606;-78
2021/03/21 03:34:27;;;;;;;5.33;2.90;;;;;;;-0.08;79.28;100322.41;4701087;61;1138705;-78
2021/03/21 03:39:35;;;;;;;3.63;2.27;;;;;;;-0.09;79.41;100307.72;4700559;62;1136820;-77
2021/03/21 03:44:48;;;;;;;6.67;3.17;;;;;;;-0.07;79.57;100294.67;4700701;62;1136606;-76
2021/03/21 03:50:15;;;;;;;4.20;3.13;;;;;;;-0.07;79.62;100294.67;4701351;61;1136372;-76
2021/03/21 03:55:49;;;;;;;5.75;2.72;;;;;;;-0.04;79.68;100277.21;4737539;58;1136552;-76
2021/03/21 04:01:02;;;;;;;7.45;3.80;;;;;;;-0.07;80.28;100272.13;5004035;58;1136344;-77
2021/03/21 04:06:41;;;;;;;5.53;3.17;;;;;;;-0.05;79.92;100257.77;4998433;58;1136314;-75
2021/03/21 04:11:57;;;;;;;12.50;2.87;;;;;;;-0.03;80.30;100246.87;5003792;58;1136853;-76
2021/03/21 04:17:27;;;;;;;10.23;4.07;;;;;;;-0.03;80.34;100232.12;4999531;58;1138874;-78
2021/03/21 04:22:40;;;;;;;3.27;2.50;;;;;;;-0.02;80.01;100238.16;4999285;58;1138870;-76
2021/03/21 04:28:16;;;;;;;7.25;4.28;;;;;;;-0.04;81.04;100229.12;5003784;58;1136416;-76
2021/03/21 04:33:25;;;;;;;4.03;2.85;;;;;;;-0.05;80.81;100220.93;5003657;58;1136429;-78
2021/03/21 04:38:41;;;;;;;7.07;3.70;;;;;;;0.00;80.91;100215.56;5003572;58;1136373;-75
2021/03/21 04:44:11;;;;;;;2.30;2.00;;;;;;;0.04;80.85;100214.96;5004042;58;1134279;-76
2021/03/21 04:49:20;;;;;;;7.37;4.37;;;;;;;0.02;81.62;100208.52;5003603;58;1134245;-78
2021/03/21 04:54:32;;;;;;;5.25;3.47;;;;;;;0.07;81.54;100209.19;5004541;58;1134942;-75
2021/03/21 04:59:40;;;;;;;8.13;3.70;;;;;;;0.08;81.90;100207.44;5004536;58;1134732;-74
2021/03/21 05:05:07;;;;;;;8.20;4.43;;;;;;;0.08;82.13;100197.05;5004483;58;1135003;-77
2021/03/21 05:10:44;;;;;;;4.87;4.07;;;;;;;0.10;81.65;100179.17;5004176;58;1134905;-73
2021/03/21 05:16:09;;;;;;;7.70;3.40;;;;;;;0.14;82.22;100172.11;5003680;58;1134656;-78
2021/03/21 05:21:37;;;;;;;8.83;4.83;;;;;;;0.15;83.13;100171.20;4999741;58;1138055;-77
2021/03/21 05:26:53;;;;;;;7.77;4.20;;;;;;;0.14;83.87;100154.75;5000475;58;1134956;-75
2021/03/21 05:31:59;;;;;;;7.30;5.22;;;;;;;0.14;84.31;100161.70;5014091;57;1134980;-73
2021/03/21 05:37:36;;;;;;;14.93;3.83;;;;;;;0.19;83.70;100146.74;5014843;57;1134758;-72
2021/03/21 05:43:21;;;;;;;7.17;4.50;;;;;;;0.23;84.45;100135.31;5013904;57;1136391;-78
2021/03/21 05:49:03;;;;;;;7.45;4.08;;;;;;;0.32;83.81;100137.52;5000646;57;1134261;-75
2021/03/21 05:54:40;;;;;;;8.93;3.17;;;;;;;0.38;84.07;100136.43;5014530;57;1134322;-75
2021/03/21 06:00:19;;;;;;;5.67;4.07;;;;;;;0.41;84.83;100115.50;4764148;59;1134997;-76
2021/03/21 06:06:07;;;;;;;10.60;5.23;;;;;;;0.43;84.59;100101.52;4761418;59;1134869;-79
2021/03/21 06:11:58;;;;;;;7.43;4.43;;;;;;;0.46;84.87;100110.47;4733972;60;1252699;-78
2021/03/21 06:17:24;;;;;;;7.70;5.70;;;;;;;0.46;85.38;100083.64;4549447;63;1135295;-77
2021/03/21 06:22:55;;;;;;;8.08;4.70;;;;;;;0.47;85.31;100074.44;4545815;63;1134448;-76
2021/03/21 06:28:31;;;;;;;11.17;4.87;;;;;;;0.51;85.97;100069.95;4548382;63;1134386;-78
2021/03/21 06:34:14;;;;;;;8.43;6.23;;;;;;;0.56;85.88;100066.70;4547329;63;1136469;-77
2021/03/21 06:39:54;;;;;;;7.00;4.77;;;;;;;0.58;85.85;100059.69;4768085;60;1134833;-78
2021/03/21 06:45:39;;;;;;;7.77;5.90;;;;;;;0.63;85.95;100067.66;4768015;60;1134989;-76
2021/03/21 06:51:08;;;;;;;6.45;5.10;;;;;;;0.64;86.41;100062.84;4801438;59;1134769;-78
2021/03/21 06:56:37;;;;;;;12.23;6.53;;;;;;;0.66;86.92;100058.42;4870468;58;1134542;-78
2021/03/21 07:02:14;;;;;;;9.13;4.83;;;;;;;0.69;87.00;100054.84;4891479;58;1136507;-74
2021/03/21 07:08:04;;;;;;;7.92;4.97;;;;;;;0.77;87.15;100052.72;4927849;59;1134748;-74
2021/03/21 07:13:50;;;;;;;13.60;7.73;;;;;;;0.80;87.64;100055.66;4917094;58;1134633;-74
2021/03/21 07:19:23;;;;;;;8.60;6.10;;;;;;;0.83;87.75;100052.92;4835828;59;1136671;-74
2021/03/21 07:24:35;;;;;;;14.67;7.13;;;;;;;0.82;88.58;100047.32;4834078;59;1134597;-75
2021/03/21 07:29:49;;;;;;;15.57;9.53;;;;;;;0.79;88.91;100034.44;4841362;59;1136658;-75
2021/03/21 07:35:17;;;;;;;12.65;7.47;;;;;;;0.79;89.46;100031.38;4974613;57;1136987;-75
2021/03/21 07:40:51;;;;;;;114.28;66.75;;;;;;;0.85;89.57;100026.36;4994223;57;1136990;-74
2021/03/21 07:46:10;;;;;;;84.28;49.08;;;;;;;0.94;89.54;100020.27;4994100;58;1140990;-74
2021/03/21 07:51:29;;;;;;;90.17;53.53;;;;;;;0.98;89.42;100007.95;4974782;57;1138915;-75
2021/03/21 07:56:40;;;;;;;64.13;36.83;;;;;;;1.02;90.18;99996.03;4969200;57;1138990;-74
2021/03/21 08:01:45;;;;;;;35.50;20.70;;;;;;;1.06;90.73;99991.53;4973192;57;1137097;-75
2021/03/21 08:07:38;;;;;;;24.83;15.83;;;;;;;1.11;91.21;99976.98;4971551;57;1137109;-74
2021/03/21 08:13:08;;;;;;;34.50;14.17;;;;;;;1.20;90.79;99983.06;4893822;58;1136326;-74
2021/03/21 08:18:28;;;;;;;13.73;6.50;;;;;;;1.28;90.42;99971.80;5013410;57;1136406;-74
2021/03/21 08:23:47;;;;;;;36.30;15.63;;;;;;;1.37;91.18;99964.41;5001617;57;1134332;-74
2021/03/21 08:29:09;;;;;;;6.30;4.80;;;;;;;1.43;90.33;99952.83;4933232;58;1136778;-74
2021/03/21 08:34:44;;;;;;;5.67;3.17;;;;;;;1.51;91.20;99944.19;4939116;57;1132433;-75
2021/03/21 08:40:17;;;;;;;14.63;7.67;;;;;;;1.60;91.43;99951.99;4963856;57;1132332;-77
2021/03/21 08:45:30;;;;;;;17.02;8.70;;;;;;;1.66;91.11;99947.33;4906390;59;1134517;-77
2021/03/21 08:50:42;;;;;;;16.70;9.08;;;;;;;1.75;90.73;99936.89;4932316;59;1134618;-76
2021/03/21 08:55:47;;;;;;;7.33;4.77;;;;;;;1.85;91.33;99936.79;4932959;59;1134542;-74
2021/03/21 09:00:58;;;;;;;8.03;3.60;;;;;;;1.93;91.65;99933.80;4944790;57;1133105;-74
2021/03/21 09:06:04;;;;;;;4.87;3.37;;;;;;;2.01;91.06;99932.94;4997149;57;1132567;-77
2021/03/21 09:11:13;;;;;;;5.83;3.27;;;;;;;2.04;91.51;99929.72;4928258;59;1132273;-75
2021/03/21 09:16:18;;;;;;;3.07;2.77;;;;;;;2.10;91.39;99933.32;4910021;59;1132391;-77
2021/03/21 09:21:28;;;;;;;3.35;3.05;;;;;;;2.17;91.40;99933.83;4981721;58;1132745;-74
2021/03/21 09:26:38;;;;;;;7.20;4.77;;;;;;;2.21;91.40;99921.01;4991721;57;1132635;-74
2021/03/21 09:31:44;;;;;;;18.03;8.50;;;;;;;2.27;90.77;99921.16;4930423;58;1132656;-76
2021/03/21 09:37:06;;;;;;;3.83;3.30;;;;;;;2.32;91.00;99921.27;5012641;58;1134680;-74
2021/03/21 09:42:15;;;;;;;3.83;2.97;;;;;;;2.35;91.25;99920.27;5013059;58;1132908;-73
2021/03/21 09:47:29;;;;;;;3.50;3.20;;;;;;;2.41;91.02;99925.17;4932458;58;1142069;-75
2021/03/21 09:52:44;;;;;;;3.17;2.92;;;;;;;2.43;90.92;99928.09;5013070;57;1132752;-76
2021/03/21 09:58:22;;;;;;;5.90;4.43;;;;;;;2.50;90.43;99929.05;4884946;59;1132670;-74
2021/03/21 10:03:34;;;;;;;6.84;4.74;;;;;;;2.56;90.38;99931.34;4996550;57;1132291;-75
2021/03/21 10:09:01;;;;;;;6.17;4.15;;;;;;;2.66;90.53;99923.38;5013269;58;1132300;-77
2021/03/21 10:14:29;;;;;;;8.43;6.20;;;;;;;2.68;91.27;99925.45;5006546;57;1132139;-75
2021/03/21 10:19:55;;;;;;;9.78;6.60;;;;;;;2.72;90.79;99925.66;4998500;57;1132638;-74
2021/03/21 10:25:17;;;;;;;3.30;2.97;;;;;;;2.75;91.07;99930.23;4986344;57;1132114;-78
2021/03/21 10:30:34;;;;;;;5.47;4.50;;;;;;;2.79;91.59;99927.84;4928342;58;1132395;-75
2021/03/21 10:35:53;;;;;;;4.63;3.83;;;;;;;2.82;91.54;99936.81;4971681;58;1132486;-77
2021/03/21 10:40:59;;;;;;;16.43;9.33;;;;;;;2.92;91.05;99931.07;4940471;58;1132919;-74
2021/03/21 10:46:07;;;;;;;38.23;17.43;;;;;;;3.02;91.17;99933.11;5001574;57;1134416;-73
2021/03/21 10:51:14;;;;;;;28.83;10.43;;;;;;;3.09;91.27;99925.75;5001215;57;1136562;-73
2021/03/21 10:56:26;;;;;;;113.50;48.30;;;;;;;3.16;91.73;99916.66;5001774;57;1136853;-73
2021/03/21 11:01:35;;;;;;;94.13;51.83;;;;;;;3.24;91.65;99915.73;4996706;58;1145580;-72
2021/03/21 11:07:12;;;;;;;107.33;37.67;;;;;;;3.31;91.12;99907.09;4963619;57;1136648;-73
2021/03/21 11:12:22;;;;;;;164.13;42.38;;;;;;;3.38;91.29;99908.41;4937596;59;1139192;-75
2021/03/21 11:17:31;;;;;;;68.97;16.57;;;;;;;3.45;91.37;99908.45;4909413;58;1138919;-73
2021/03/21 11:22:40;;;;;;;99.55;30.00;;;;;;;3.48;91.55;99895.20;4922714;58;1136876;-75
2021/03/21 11:27:51;;;;;;;170.90;48.83;;;;;;;3.54;91.67;99890.91;4922648;58;1136852;-74
2021/03/21 11:33:22;;;;;;;86.93;25.20;;;;;;;3.60;91.43;99889.72;4922807;58;1139000;-73
2021/03/21 11:38:35;;;;;;;16.95;5.78;;;;;;;3.69;91.28;99880.00;4958043;58;1136858;-74
2021/03/21 11:43:40;;;;;;;11.73;7.10;;;;;;;3.73;91.98;99878.90;4916730;58;1134745;-73
2021/03/21 11:48:46;;;;;;;22.77;16.93;;;;;;;3.79;91.55;99883.78;5007060;58;1134460;-75
2021/03/21 11:53:52;;;;;;;42.43;29.90;;;;;;;3.89;91.88;99883.12;5006968;58;1136538;-74
2021/03/21 11:59:07;;;;;;;14.67;4.93;;;;;;;4.00;91.36;99883.77;4975663;57;1136389;-75
2021/03/21 12:04:32;;;;;;;38.47;10.60;;;;;;;4.09;91.56;99884.54;4968378;57;1134868;-76
2021/03/21 12:09:48;;;;;;;21.90;6.60;;;;;;;4.18;91.59;99876.58;4898530;59;1136411;-74
2021/03/21 12:14:53;;;;;;;6.27;3.30;;;;;;;4.26;91.71;99885.28;4839942;60;1134364;-75
2021/03/21 12:20:19;;;;;;;3.62;2.50;;;;;;;4.34;91.70;99879.94;4817441;60;1132283;-74
2021/03/21 12:25:29;;;;;;;10.72;3.95;;;;;;;4.38;91.31;99879.28;4818918;60;1132756;-74
2021/03/21 12:30:44;;;;;;;5.67;2.70;;;;;;;4.40;90.98;99880.03;4978545;57;1134403;-75
2021/03/21 12:35:50;;;;;;;12.00;5.03;;;;;;;4.41;91.70;99877.33;4970073;57;1132688;-75
2021/03/21 12:40:56;;;;;;;8.93;4.93;;;;;;;4.41;90.82;99885.64;4888601;59;1134545;-74
2021/03/21 12:46:12;;;;;;;9.80;4.97;;;;;;;4.42;90.85;99886.86;4876077;59;1132606;-75
2021/03/21 12:51:34;;;;;;;9.57;4.10;;;;;;;4.44;90.61;99891.97;4891275;59;1135062;-75
2021/03/21 12:56:39;;;;;;;40.37;22.80;;;;;;;4.44;90.91;99888.05;4806222;59;1132912;-74
2021/03/21 13:01:47;;;;;;;177.50;134.70;;;;;;;4.42;90.64;99891.25;4889149;59;1139159;-75
2021/03/21 13:06:52;;;;;;;120.10;97.57;;;;;;;4.43;90.63;99892.44;4881121;59;1141241;-74
2021/03/21 13:11:58;;;;;;;13.85;7.30;;;;;;;4.42;90.32;99894.72;4874277;59;1138929;-75
2021/03/21 13:17:04;;;;;;;8.40;4.60;;;;;;;4.46;90.55;99901.88;4867886;59;1136356;-75
2021/03/21 13:22:11;;;;;;;9.70;5.10;;;;;;;4.45;90.09;99906.75;4908525;58;1134443;-75
2021/03/21 13:27:16;;;;;;;17.17;5.47;;;;;;;4.46;90.31;99909.74;4806256;60;1134688;-75
2021/03/21 13:32:22;;;;;;;17.37;6.47;;;;;;;4.50;90.46;99912.08;4840082;59;1136643;-76
2021/03/21 13:37:28;;;;;;;16.25;6.55;;;;;;;4.56;90.58;99912.18;4879850;59;1137188;-75
2021/03/21 13:42:34;;;;;;;13.13;6.90;;;;;;;4.60;90.66;99917.58;4829014;59;1136871;-76
2021/03/21 13:47:39;;;;;;;9.83;5.12;;;;;;;4.63;90.29;99920.48;4764083;60;1137129;-75
2021/03/21 13:52:45;;;;;;;8.03;4.30;;;;;;;4.65;90.42;99931.70;4842926;60;1135241;-75
2021/03/21 13:57:50;;;;;;;17.13;8.00;;;;;;;4.67;90.45;99933.77;4842756;60;1134847;-75
2021/03/21 14:02:56;;;;;;;17.47;6.57;;;;;;;4.69;90.25;99934.05;4842481;59;1136956;-76
2021/03/21 14:08:03;;;;;;;16.70;6.07;;;;;;;4.75;90.14;99932.33;4884267;58;1136742;-75
2021/03/21 14:13:10;;;;;;;65.10;40.97;;;;;;;4.80;90.47;99939.91;4924041;58;1137252;-75
2021/03/21 14:18:18;;;;;;;24.40;10.83;;;;;;;4.83;90.19;99946.27;4923279;58;1139299;-76
2021/03/21 14:23:28;;;;;;;13.93;5.30;;;;;;;4.86;90.37;99946.92;4923529;58;1138964;-77
2021/03/21 14:28:37;;;;;;;36.77;14.97;;;;;;;4.87;90.74;99943.84;4920345;59;1136802;-76
2021/03/21 14:33:42;;;;;;;27.50;8.93;;;;;;;4.88;90.24;99952.91;4845770;59;1138664;-76
2021/03/21 14:38:50;;;;;;;21.83;9.67;;;;;;;4.92;90.09;99956.16;4922835;58;1136636;-75
2021/03/21 14:43:55;;;;;;;29.80;11.87;;;;;;;4.95;89.86;99962.52;4847500;59;1136767;-74
2021/03/21 14:49:01;;;;;;;9.77;4.50;;;;;;;4.97;89.78;99972.91;5013586;58;1138865;-75
2021/03/21 14:54:07;;;;;;;26.93;10.13;;;;;;;4.99;89.96;99980.20;5013909;58;1134364;-75
2021/03/21 14:59:12;;;;;;;18.90;6.60;;;;;;;5.00;89.77;99989.75;5013470;57;1138910;-74
2021/03/21 15:04:18;;;;;;;10.37;3.33;;;;;;;5.02;89.83;99999.67;4932583;58;1136290;-76
2021/03/21 15:09:23;;;;;;;18.30;7.20;;;;;;;5.04;89.53;99997.30;5013639;57;1136558;-77
2021/03/21 15:14:29;;;;;;;19.00;6.97;;;;;;;5.10;89.54;99994.31;5005315;58;1136372;-77
2021/03/21 15:19:34;;;;;;;21.60;7.50;;;;;;;5.15;89.65;100013.69;4991657;57;1134803;-75
2021/03/21 15:24:40;;;;;;;17.55;6.35;;;;;;;5.14;89.11;100029.88;4979388;58;1138655;-77
2021/03/21 15:29:45;;;;;;;19.12;8.03;;;;;;;5.15;88.88;100035.97;5012417;57;1138665;-76
2021/03/21 15:34:51;;;;;;;30.70;10.70;;;;;;;5.16;88.66;100040.27;4932048;58;1138509;-76
2021/03/21 15:39:57;;;;;;;17.40;6.03;;;;;;;5.11;88.64;100042.33;5013104;57;1140789;-73
2021/03/21 15:45:03;;;;;;;16.67;7.67;;;;;;;5.06;88.10;100059.64;4928120;58;1138522;-78
2021/03/21 15:50:09;;;;;;;19.20;6.70;;;;;;;5.04;88.02;100068.06;4841520;60;1138891;-77
2021/03/21 15:55:15;;;;;;;9.83;4.00;;;;;;;5.00;88.11;100078.39;4845949;58;1138649;-73
2021/03/21 16:00:25;;;;;;;23.13;9.70;;;;;;;5.14;88.19;100088.02;4841647;60;1136607;-73
2021/03/21 16:05:31;;;;;;;54.93;21.55;;;;;;;5.14;87.47;100090.17;4844661;58;1138600;-76
2021/03/21 16:10:37;;;;;;;28.63;9.17;;;;;;;5.07;87.19;100094.09;4922874;59;1138864;-77
2021/03/21 16:15:46;;;;;;;30.97;16.77;;;;;;;5.02;86.76;100096.17;4922902;59;1138915;-74
2021/03/21 16:20:52;;;;;;;21.37;14.00;;;;;;;5.05;87.04;100109.06;4922657;58;1141004;-76
2021/03/21 16:25:57;;;;;;;38.93;15.23;;;;;;;5.09;86.82;100104.48;4922908;58;1139121;-77
2021/03/21 16:31:03;;;;;;;394.77;351.17;;;;;;;5.15;86.28;100117.23;4922460;58;1141100;-76
2021/03/21 16:36:09;;;;;;;97.05;62.85;;;;;;;5.20;85.91;100119.08;4922052;59;1145246;-76
2021/03/21 16:41:15;;;;;;;42.00;18.30;;;;;;;5.14;85.31;100129.95;4921724;58;1139062;-76
2021/03/21 16:46:21;;;;;;;26.93;11.53;;;;;;;5.03;84.65;100135.87;4921821;58;1140659;-75
2021/03/21 16:51:28;;;;;;;17.10;7.97;;;;;;;4.87;84.16;100133.80;4921520;59;1140718;-75
2021/03/21 16:56:34;;;;;;;8.20;2.87;;;;;;;4.71;84.05;100152.20;4921406;58;1136521;-75
2021/03/21 17:01:40;;;;;;;15.72;4.92;;;;;;;4.59;83.52;100168.16;4835858;59;1136834;-77
2021/03/21 17:06:47;;;;;;;10.70;5.23;;;;;;;4.46;83.44;100171.58;4775283;59;1136451;-76
2021/03/21 17:11:52;;;;;;;32.97;11.77;;;;;;;4.32;82.62;100178.08;4920995;59;1136952;-75
2021/03/21 17:16:58;;;;;;;193.93;80.83;;;;;;;4.23;82.97;100182.08;4912782;59;1138900;-74
2021/03/21 17:22:04;;;;;;;59.73;28.03;;;;;;;4.06;82.53;100218.81;4981260;58;1141210;-76
2021/03/21 17:27:10;;;;;;;48.80;21.03;;;;;;;4.06;82.53;100218.81;4981607;58;1139057;-76
2021/03/21 17:32:15;;;;;;;50.83;23.00;;;;;;;4.02;82.39;100222.52;4981679;58;1138996;-76
2021/03/21 17:37:27;;;;;;;116.57;71.97;;;;;;;3.91;82.25;100230.13;4982269;58;1138938;-77
2021/03/21 17:42:32;;;;;;;48.23;21.93;;;;;;;3.81;81.85;100233.26;4981677;58;1141212;-78
2021/03/21 17:47:37;;;;;;;32.65;15.63;;;;;;;3.82;82.19;100234.06;4990680;58;1139414;-75
2021/03/21 17:52:43;;;;;;;39.25;17.67;;;;;;;3.77;82.05;100237.42;5007432;58;1138949;-72
2021/03/21 17:57:49;;;;;;;39.87;19.27;;;;;;;3.77;82.18;100250.50;4992269;58;1139174;-74
2021/03/21 18:02:56;;;;;;;77.23;33.37;;;;;;;3.69;82.19;100257.43;4973684;58;1139062;-74
2021/03/21 18:08:02;;;;;;;33.33;16.57;;;;;;;3.61;81.64;100273.16;4932909;58;1138559;-76
2021/03/21 18:13:08;;;;;;;37.13;16.77;;;;;;;3.54;81.44;100280.47;4933380;59;1138951;-79
2021/03/21 18:18:14;;;;;;;36.47;15.10;;;;;;;3.54;81.64;100290.47;4933174;59;1138950;-75
2021/03/21 18:23:20;;;;;;;29.53;13.70;;;;;;;3.52;81.67;100295.39;4933072;59;1139368;-75
2021/03/21 18:28:28;;;;;;;34.13;13.98;;;;;;;3.49;81.63;100306.03;4925521;59;1138930;-78
2021/03/21 18:33:37;;;;;;;32.88;15.38;;;;;;;3.39;81.33;100312.63;4849496;60;1139175;-75
2021/03/21 18:38:43;;;;;;;38.45;16.17;;;;;;;3.32;80.70;100320.42;4932910;59;1139197;-74
2021/03/21 18:43:51;;;;;;;34.47;14.47;;;;;;;3.24;80.53;100333.86;4933469;59;1138542;-76
2021/03/21 18:48:56;;;;;;;66.50;23.57;;;;;;;3.12;79.91;100344.94;4962982;57;1139034;-75
2021/03/21 18:54:02;;;;;;;83.73;32.03;;;;;;;3.00;79.94;100356.00;5000107;57;1138918;-76
2021/03/21 18:59:07;;;;;;;63.23;24.13;;;;;;;2.88;79.77;100361.83;4999141;57;1138892;-75
2021/03/21 19:04:16;;;;;;;59.47;23.37;;;;;;;2.77;79.57;100368.84;4999731;57;1138797;-75
2021/03/21 19:09:22;;;;;;;55.07;22.60;;;;;;;2.76;79.69;100377.14;5000338;57;1138822;-76
2021/03/21 19:14:40;;;;;;;53.70;22.83;;;;;;;2.77;79.97;100388.44;5004409;57;1139331;-77
2021/03/21 19:19:45;;;;;;;62.08;29.55;;;;;;;2.78;80.01;100394.05;5009758;58;1138669;-74
2021/03/21 19:24:51;;;;;;;58.40;25.23;;;;;;;2.75;79.87;100404.66;5014870;57;1139103;-75
2021/03/21 19:29:56;;;;;;;56.07;25.13;;;;;;;2.67;79.66;100402.86;5014238;57;1138710;-74
2021/03/21 19:35:02;;;;;;;69.10;32.03;;;;;;;2.59;79.44;100408.45;4958226;57;1138465;-79
2021/03/21 19:40:10;;;;;;;80.00;33.87;;;;;;;2.51;79.38;100418.39;4935240;59;1138685;-76
2021/03/21 19:45:16;;;;;;;74.60;31.60;;;;;;;2.40;79.24;100421.49;4935085;59;1138656;-76
2021/03/21 19:50:28;;;;;;;85.97;35.20;;;;;;;2.37;79.16;100422.09;4933609;59;1138623;-76
2021/03/21 19:55:35;;;;;;;87.27;38.90;;;;;;;2.32;78.95;100427.50;4923773;59;1139075;-74
2021/03/21 20:00:42;;;;;;;84.13;35.50;;;;;;;2.23;79.01;100441.43;4923757;59;1138642;-79
2021/03/21 20:05:47;;;;;;;85.90;38.23;;;;;;;2.14;79.12;100441.85;4923752;59;1138620;-76
2021/03/21 20:10:53;;;;;;;98.20;43.83;;;;;;;2.06;79.17;100444.78;4923661;59;1138694;-80
2021/03/21 20:15:59;;;;;;;129.37;52.13;;;;;;;1.99;78.96;100452.47;4923704;59;1139028;-74
2021/03/21 20:21:05;;;;;;;115.90;47.40;;;;;;;1.94;78.77;100453.14;4923508;59;1140704;-77
2021/03/21 20:26:10;;;;;;;132.33;49.87;;;;;;;1.88;78.82;100458.16;4922949;59;1140652;-80
2021/03/21 20:31:16;;;;;;;122.33;51.03;;;;;;;1.85;78.92;100469.17;4923527;59;1140449;-79
2021/03/21 20:36:22;;;;;;;129.03;50.23;;;;;;;1.75;78.71;100459.59;4946913;58;1140681;-77
2021/03/21 20:41:28;;;;;;;125.87;52.70;;;;;;;1.70;78.72;100473.27;5003017;58;1140595;-78
2021/03/21 20:46:34;;;;;;;107.85;38.78;;;;;;;1.63;78.69;100477.91;4922696;59;1141261;-79
2021/03/21 20:51:39;;;;;;;112.73;42.67;;;;;;;1.39;77.46;100482.80;4922986;58;1140610;-74
2021/03/21 20:56:45;;;;;;;97.97;37.90;;;;;;;1.21;77.98;100479.20;4840525;59;1150439;-77
2021/03/21 21:01:51;;;;;;;84.83;32.37;;;;;;;1.16;78.09;100484.19;4921082;58;1138613;-79
2021/03/21 21:06:56;;;;;;;54.33;21.67;;;;;;;1.11;78.63;100479.61;4838009;60;1138614;-81
2021/03/21 21:12:02;;;;;;;50.75;19.27;;;;;;;1.13;78.82;100481.70;5002013;57;1138613;-78
2021/03/21 21:17:09;;;;;;;63.70;23.87;;;;;;;1.14;78.79;100486.01;4995729;57;1139235;-76
2021/03/21 21:22:15;;;;;;;51.47;21.67;;;;;;;1.14;78.97;100491.22;4997537;58;1139331;-76
2021/03/21 21:27:20;;;;;;;59.87;23.80;;;;;;;1.11;78.96;100490.88;4956427;58;1138964;-78
2021/03/21 21:32:26;;;;;;;66.43;25.27;;;;;;;1.12;78.85;100490.42;4923667;59;1139123;-79
2021/03/21 21:37:31;;;;;;;91.83;36.77;;;;;;;1.10;78.73;100495.69;4924516;58;1140615;-78
2021/03/21 21:42:37;;;;;;;106.92;38.67;;;;;;;1.08;78.57;100488.84;4847114;59;1139401;-78
2021/03/21 21:47:44;;;;;;;88.58;30.34;;;;;;;1.03;78.50;100488.59;4846812;60;1140960;-75
2021/03/21 21:52:51;;;;;;;80.77;31.87;;;;;;;1.01;78.44;100493.00;4847170;60;1138943;-79
2021/03/21 21:57:57;;;;;;;139.23;52.33;;;;;;;0.98;78.42;100492.27;4846830;59;1139089;-74
2021/03/21 22:03:03;;;;;;;209.13;70.53;;;;;;;0.91;78.02;100480.41;4924143;58;1141359;-76
2021/03/21 22:08:08;;;;;;;150.07;52.27;;;;;;;0.86;78.17;100484.94;4846851;60;1141543;-77
2021/03/21 22:13:18;;;;;;;164.57;56.03;;;;;;;0.82;78.24;100497.21;4846724;59;1141145;-79
2021/03/21 22:18:28;;;;;;;156.63;52.20;;;;;;;0.76;77.97;100500.52;4924321;58;1141063;-76
2021/03/21 22:23:39;;;;;;;167.20;53.97;;;;;;;0.69;78.01;100506.39;4846614;60;1141304;-82
2021/03/21 22:28:45;;;;;;;512.12;144.80;;;;;;;0.63;78.07;100499.65;4845844;59;1141061;-79
2021/03/21 22:33:52;;;;;;;327.93;94.47;;;;;;;0.55;77.89;100512.56;4923013;58;1143106;-82
2021/03/21 22:38:58;;;;;;;423.97;123.13;;;;;;;0.48;77.94;100508.47;4845925;60;1141343;-80
2021/03/21 22:44:04;;;;;;;297.57;83.40;;;;;;;0.46;78.25;100510.30;4845612;59;1143015;-76
2021/03/21 22:49:10;;;;;;;53.57;20.50;;;;;;;0.30;77.24;100516.06;4922946;58;1141199;-81
2021/03/21 22:54:15;;;;;;;63.10;22.10;;;;;;;-0.08;76.90;100516.52;4846241;60;1139105;-82
2021/03/21 22:59:21;;;;;;;37.67;16.10;;;;;;;-0.11;78.05;100521.38;4846114;59;1141491;-77
2021/03/21 23:04:27;;;;;;;30.63;13.37;;;;;;;-0.09;78.31;100520.88;4924063;58;1141237;-82
2021/03/21 23:09:32;;;;;;;45.23;18.37;;;;;;;0.01;78.86;100517.50;4846974;60;1141195;-79
2021/03/21 23:14:38;;;;;;;42.67;17.20;;;;;;;0.09;78.86;100519.40;4846848;59;1138901;-79
2021/03/21 23:19:43;;;;;;;63.80;21.70;;;;;;;0.15;78.75;100537.85;4924270;58;1138840;-79
2021/03/21 23:24:49;;;;;;;49.65;17.60;;;;;;;0.18;78.62;100534.67;4847116;60;1138943;-74
2021/03/21 23:29:54;;;;;;;47.78;19.42;;;;;;;0.18;78.58;100538.57;4846403;60;1139122;-78
2021/03/21 23:35:00;;;;;;;83.40;27.93;;;;;;;0.20;78.48;100546.32;4924162;58;1138589;-76
2021/03/21 23:40:09;;;;;;;80.93;29.60;;;;;;;0.16;78.14;100545.57;4846896;60;1138635;-77
2021/03/21 23:45:18;;;;;;;89.27;32.43;;;;;;;0.10;77.95;100548.85;4846777;60;1138697;-79